TimeEST,TemperatureF,Dew PointF,Humidity,Sea Level PressureIn,VisibilityMPH,Wind Direction,Wind SpeedMPH,Gust SpeedMPH,PrecipitationIn,Events,Conditions,WindDirDegrees,DateUTC
12:15 AM,43.9,32.5,64,30.15,10.0,South,4.6,-,N/A,,Overcast,170,2012-11-20 05:15:00
12:34 AM,43.9,32.5,64,30.15,10.0,South,5.8,-,N/A,,Overcast,180,2012-11-20 05:34:00
12:54 AM,43.9,32.7,65,30.14,10.0,SSW,5.8,-,N/A,,Overcast,200,2012-11-20 05:54:00
1:15 AM,44.2,32.5,63,30.14,10.0,South,4.6,-,N/A,,Overcast,170,2012-11-20 06:15:00
1:34 AM,44.1,32.9,65,30.13,10.0,South,3.5,-,N/A,,Overcast,190,2012-11-20 06:34:00
1:54 AM,44.4,32.5,63,30.13,10.0,SW,4.6,-,N/A,,Overcast,220,2012-11-20 06:54:00
2:15 AM,43.9,32.5,64,30.13,10.0,Calm,Calm,-,N/A,,Mostly Cloudy,0,2012-11-20 07:15:00
2:34 AM,43.7,32.2,64,30.13,10.0,SSW,5.8,-,N/A,,Mostly Cloudy,210,2012-11-20 07:34:00
2:55 AM,44.4,32.2,62,30.12,10.0,SSW,5.8,-,N/A,,Overcast,210,2012-11-20 07:55:00
3:14 AM,44.8,32.2,61,30.12,10.0,SSW,4.6,-,N/A,,Overcast,200,2012-11-20 08:14:00
3:34 AM,43.9,32.4,64,30.12,10.0,Calm,Calm,-,N/A,,Overcast,0,2012-11-20 08:34:00
3:55 AM,43.2,32.9,67,30.12,10.0,ESE,3.5,-,N/A,,Overcast,120,2012-11-20 08:55:00
4:14 AM,42.3,33.3,70,30.12,10.0,South,3.5,-,N/A,,Overcast,180,2012-11-20 09:14:00
4:34 AM,42.8,33.3,69,30.12,10.0,South,3.5,-,N/A,,Overcast,170,2012-11-20 09:34:00
4:55 AM,42.6,33.6,70,30.12,10.0,Calm,Calm,-,N/A,,Overcast,0,2012-11-20 09:55:00
5:14 AM,42.3,33.3,70,30.11,10.0,Calm,Calm,-,N/A,,Overcast,0,2012-11-20 10:14:00
5:34 AM,41.9,33.8,73,30.11,10.0,South,4.6,-,N/A,,Overcast,170,2012-11-20 10:34:00
5:54 AM,42.8,33.3,69,30.11,10.0,Calm,Calm,-,N/A,,Overcast,0,2012-11-20 10:54:00
6:14 AM,42.4,33.8,71,30.11,10.0,South,4.6,-,N/A,,Overcast,180,2012-11-20 11:14:00
6:35 AM,42.4,33.8,71,30.11,10.0,SSE,5.8,-,N/A,,Overcast,150,2012-11-20 11:35:00
7:14 AM,42.3,33.8,72,30.12,10.0,SSW,4.6,-,N/A,,Overcast,200,2012-11-20 12:14:00
7:35 AM,42.8,33.6,70,30.12,10.0,SSW,4.6,-,N/A,,Overcast,200,2012-11-20 12:35:00
7:54 AM,43.2,33.8,70,30.12,10.0,SSW,4.6,-,N/A,,Overcast,200,2012-11-20 12:54:00
8:15 AM,43.3,34.0,70,30.12,10.0,South,4.6,-,N/A,,Overcast,180,2012-11-20 13:15:00
8:34 AM,43.9,34.2,69,30.12,10.0,SW,4.6,-,N/A,,Overcast,230,2012-11-20 13:34:00
8:54 AM,44.6,34.3,67,30.12,10.0,Calm,Calm,-,N/A,,Overcast,0,2012-11-20 13:54:00
9:15 AM,45.0,34.3,66,30.12,10.0,Calm,Calm,-,N/A,,Overcast,0,2012-11-20 14:15:00
9:34 AM,45.9,34.3,64,30.12,10.0,Calm,Calm,-,N/A,,Overcast,0,2012-11-20 14:34:00
9:54 AM,47.7,34.9,61,30.12,10.0,SW,3.5,-,N/A,,Overcast,220,2012-11-20 14:54:00
10:15 AM,49.8,35.1,57,30.12,10.0,SW,3.5,-,N/A,,Overcast,230,2012-11-20 15:15:00
10:34 AM,50.5,34.9,55,30.12,10.0,Calm,Calm,-,N/A,,Overcast,0,2012-11-20 15:34:00
10:54 AM,50.9,35.4,55,30.11,10.0,Calm,Calm,-,N/A,,Overcast,0,2012-11-20 15:54:00
11:14 AM,52.9,35.8,52,30.11,10.0,Calm,Calm,-,N/A,,Overcast,0,2012-11-20 16:14:00
11:34 AM,52.2,35.1,52,30.10,10.0,Calm,Calm,-,N/A,,Overcast,0,2012-11-20 16:34:00
11:55 AM,52.3,35.4,53,30.10,10.0,Calm,Calm,-,N/A,,Overcast,0,2012-11-20 16:55:00
12:14 PM,51.1,38.1,61,30.09,10.0,Calm,Calm,-,N/A,,Overcast,0,2012-11-20 17:14:00
12:34 PM,51.6,38.3,60,30.09,10.0,Calm,Calm,-,N/A,,Overcast,0,2012-11-20 17:34:00
12:55 PM,49.3,39.2,68,30.09,10.0,NNE,3.5,-,N/A,,Overcast,20,2012-11-20 17:55:00
1:14 PM,47.8,38.1,69,30.09,10.0,NE,3.5,-,N/A,,Overcast,40,2012-11-20 18:14:00
1:34 PM,47.3,39.2,73,30.10,10.0,Calm,Calm,-,N/A,,Overcast,0,2012-11-20 18:34:00
1:54 PM,48.2,39.2,71,30.10,10.0,Calm,Calm,-,N/A,,Overcast,0,2012-11-20 18:54:00
2:14 PM,47.8,39.0,71,30.09,10.0,Calm,Calm,-,N/A,,Mostly Cloudy,0,2012-11-20 19:14:00
2:35 PM,48.4,39.2,71,30.10,10.0,Calm,Calm,-,N/A,,Scattered Clouds,0,2012-11-20 19:35:00
2:54 PM,48.6,39.2,70,30.10,10.0,Calm,Calm,-,N/A,,Mostly Cloudy,0,2012-11-20 19:54:00
3:14 PM,47.8,39.6,73,30.10,10.0,Calm,Calm,-,N/A,,Overcast,0,2012-11-20 20:14:00
3:35 PM,47.5,39.9,75,30.11,10.0,North,3.5,-,N/A,,Overcast,10,2012-11-20 20:35:00
3:54 PM,47.3,40.1,76,30.11,10.0,Calm,Calm,-,N/A,,Overcast,0,2012-11-20 20:54:00
4:14 PM,47.3,40.3,77,30.11,7.0,Calm,Calm,-,N/A,,Mostly Cloudy,0,2012-11-20 21:14:00
4:35 PM,46.6,40.1,78,30.10,10.0,Calm,Calm,-,N/A,,Scattered Clouds,0,2012-11-20 21:35:00
4:54 PM,44.8,39.2,81,30.11,7.0,Calm,Calm,-,N/A,,Scattered Clouds,0,2012-11-20 21:54:00
5:14 PM,43.2,38.1,82,30.11,7.0,Calm,Calm,-,N/A,,Mostly Cloudy,0,2012-11-20 22:14:00
5:34 PM,40.8,36.9,86,30.12,7.0,Calm,Calm,-,N/A,,Mostly Cloudy,0,2012-11-20 22:34:00
5:54 PM,39.7,36.3,88,30.13,5.0,Calm,Calm,-,N/A,,Scattered Clouds,0,2012-11-20 22:54:00
6:15 PM,37.4,33.6,86,30.13,5.0,Calm,Calm,-,N/A,,Clear,0,2012-11-20 23:15:00
6:34 PM,35.8,33.1,90,30.13,2.5,Calm,Calm,-,N/A,,Clear,0,2012-11-20 23:34:00
6:54 PM,37.0,34.2,89,30.13,4.0,Calm,Calm,-,N/A,,Clear,0,2012-11-20 23:54:00
7:14 PM,36.3,33.6,90,30.13,5.0,WSW,3.5,-,N/A,,Clear,250,2012-11-21 00:14:00
7:34 PM,34.9,32.2,90,30.14,5.0,WSW,3.5,-,N/A,,Clear,240,2012-11-21 00:34:00
7:55 PM,34.9,32.2,90,30.14,3.0,Calm,Calm,-,N/A,,Clear,0,2012-11-21 00:55:00
8:14 PM,33.4,31.5,92,30.15,2.5,Calm,Calm,-,N/A,,Clear,0,2012-11-21 01:14:00
8:34 PM,34.5,32.0,90,30.15,3.0,WSW,3.5,-,N/A,,Clear,240,2012-11-21 01:34:00
8:55 PM,32.7,30.9,93,30.15,5.0,Calm,Calm,-,N/A,,Clear,0,2012-11-21 01:55:00
9:14 PM,34.9,32.5,91,30.15,5.0,Calm,Calm,-,N/A,,Mostly Cloudy,0,2012-11-21 02:14:00
9:35 PM,39.4,36.9,91,30.15,5.0,Calm,Calm,-,N/A,,Overcast,0,2012-11-21 02:35:00
9:54 PM,38.8,36.0,89,30.15,4.0,Calm,Calm,-,N/A,,Scattered Clouds,0,2012-11-21 02:54:00
10:14 PM,37.2,34.5,90,30.15,1.8,Calm,Calm,-,N/A,,Mostly Cloudy,0,2012-11-21 03:14:00
10:35 PM,35.4,32.9,91,30.15,0.8,Calm,Calm,-,N/A,,Overcast,0,2012-11-21 03:35:00
10:54 PM,34.3,32.0,91,30.15,0.8,Calm,Calm,-,N/A,,Mostly Cloudy,0,2012-11-21 03:54:00
11:15 PM,37.4,34.9,91,30.16,2.5,SW,3.5,-,N/A,,Overcast,230,2012-11-21 04:15:00
11:34 PM,40.1,37.6,91,30.16,1.8,SW,3.5,-,N/A,,Overcast,230,2012-11-21 04:34:00
11:54 PM,41.0,38.7,91,30.16,2.0,Calm,Calm,-,N/A,,Overcast,0,2012-11-21 04:54:00